createdAt,value
2022-11-12T00:01:27.790Z,10.38
2022-11-12T00:04:48.588Z,10.90
2022-11-12T00:08:09.958Z,10.32
2022-11-12T00:11:31.385Z,11.13
2022-11-12T00:14:52.399Z,11.20
2022-11-12T00:18:13.661Z,10.82
2022-11-12T00:21:34.848Z,10.60
2022-11-12T00:24:56.416Z,11.10
2022-11-12T00:28:17.777Z,10.48
2022-11-12T00:31:38.913Z,10.50
2022-11-12T00:35:02.570Z,10.32
2022-11-12T00:38:25.650Z,9.97
2022-11-12T00:41:46.867Z,10.18
2022-11-12T00:45:08.126Z,10.38
2022-11-12T00:48:29.470Z,11.02
2022-11-12T00:51:51.124Z,10.77
2022-11-12T00:55:12.480Z,10.50
2022-11-12T00:58:35.072Z,9.95
2022-11-12T01:01:56.253Z,10.70
2022-11-12T01:05:17.934Z,10.30
2022-11-12T01:08:40.674Z,10.35
2022-11-12T01:12:01.703Z,10.33
2022-11-12T01:15:23.002Z,9.95
2022-11-12T01:18:44.264Z,10.43
2022-11-12T01:22:05.382Z,9.93
2022-11-12T01:25:26.221Z,10.32
2022-11-12T01:28:48.178Z,10.27
2022-11-12T01:32:09.438Z,10.40
2022-11-12T01:35:31.138Z,10.00
2022-11-12T01:38:55.523Z,10.35
2022-11-12T01:42:16.446Z,10.00
2022-11-12T01:45:42.246Z,10.20
2022-11-12T01:49:07.684Z,10.02
2022-11-12T01:52:39.097Z,10.52
2022-11-12T01:56:02.692Z,9.60
2022-11-12T01:59:33.210Z,9.82
2022-11-12T02:02:59.602Z,8.97
2022-11-12T02:06:20.852Z,9.27
2022-11-12T02:09:42.309Z,10.20
2022-11-12T02:13:21.644Z,10.38
2022-11-12T02:16:45.975Z,9.43
2022-11-12T02:20:10.720Z,9.13
2022-11-12T02:23:32.457Z,9.30
2022-11-12T02:26:55.701Z,9.68
2022-11-12T02:30:17.888Z,9.80
2022-11-12T02:33:39.024Z,9.40
2022-11-12T02:36:59.890Z,9.73
2022-11-12T02:40:21.831Z,9.13
2022-11-12T02:43:43.155Z,9.25
2022-11-12T02:47:03.908Z,9.30
2022-11-12T02:50:25.257Z,9.35
2022-11-12T02:53:46.289Z,9.13
2022-11-12T02:57:07.533Z,8.68
2022-11-12T03:00:28.821Z,9.68
2022-11-12T03:03:50.600Z,9.32
2022-11-12T03:07:12.340Z,9.40
2022-11-12T03:10:34.385Z,8.87
2022-11-12T03:13:55.368Z,9.05
2022-11-12T03:17:16.430Z,10.27
2022-11-12T03:20:37.989Z,9.10
2022-11-12T03:23:59.081Z,9.60
2022-11-12T03:27:20.343Z,8.97
2022-11-12T03:30:43.421Z,9.10
2022-11-12T03:34:04.303Z,9.75
2022-11-12T03:37:25.249Z,9.80
2022-11-12T03:40:46.939Z,9.00
2022-11-12T03:44:08.015Z,9.17
2022-11-12T03:47:29.350Z,9.45
2022-11-12T03:50:50.330Z,9.73
2022-11-12T03:54:13.702Z,9.45
2022-11-12T03:57:34.800Z,8.77
2022-11-12T04:00:56.260Z,9.90
2022-11-12T04:04:17.581Z,9.40
2022-11-12T04:07:57.486Z,9.70
2022-11-12T04:11:18.980Z,8.88
2022-11-12T04:14:40.076Z,9.07
2022-11-12T04:18:20.065Z,8.57
2022-11-12T04:21:55.072Z,9.13
2022-11-12T04:25:34.939Z,9.65
2022-11-12T04:29:15.003Z,9.20
2022-11-12T04:32:38.771Z,8.88
2022-11-12T04:35:59.935Z,8.90
2022-11-12T04:39:21.260Z,9.15
2022-11-12T04:43:00.835Z,9.45
2022-11-12T04:46:21.666Z,8.90
2022-11-12T04:49:42.951Z,9.30
2022-11-12T04:53:03.976Z,9.03
2022-11-12T04:56:25.257Z,9.15
2022-11-12T04:59:47.180Z,9.65
2022-11-12T05:03:08.713Z,8.77
2022-11-12T05:06:48.705Z,8.63
2022-11-12T05:10:10.464Z,8.83
2022-11-12T05:13:31.282Z,8.55
2022-11-12T05:16:53.013Z,9.13
2022-11-12T05:20:15.216Z,8.95
2022-11-12T05:23:36.493Z,9.25
2022-11-12T05:26:57.157Z,8.80
2022-11-12T05:30:18.880Z,8.73
2022-11-12T05:33:39.739Z,9.75
2022-11-12T05:37:02.901Z,9.07
2022-11-12T05:40:24.633Z,9.35
2022-11-12T05:43:45.825Z,9.00
2022-11-12T05:47:07.115Z,9.02
2022-11-12T05:50:34.920Z,8.98
2022-11-12T05:54:01.840Z,8.40
2022-11-12T05:57:22.876Z,8.93
2022-11-12T06:00:44.052Z,8.63
2022-11-12T06:04:05.740Z,9.43
2022-11-12T06:07:27.013Z,9.48
2022-11-12T06:10:49.327Z,9.65
2022-11-12T06:14:10.163Z,8.95
2022-11-12T06:17:31.443Z,8.67
2022-11-12T06:21:11.444Z,9.63
2022-11-12T06:24:35.241Z,9.45
2022-11-12T06:27:56.740Z,8.48
2022-11-12T06:31:18.468Z,9.18
2022-11-12T06:34:39.931Z,8.87
2022-11-12T06:38:00.676Z,9.52
2022-11-12T06:41:22.088Z,8.52
2022-11-12T06:44:43.221Z,7.97
2022-11-12T06:48:06.475Z,8.48
2022-11-12T06:51:27.669Z,8.50
2022-11-12T06:54:48.985Z,8.00
2022-11-12T06:58:10.418Z,9.00
2022-11-12T07:01:31.583Z,8.15
2022-11-12T07:04:52.912Z,9.20
2022-11-12T07:08:13.957Z,8.30
2022-11-12T07:11:35.094Z,7.90
2022-11-12T07:14:56.453Z,9.32
2022-11-12T07:18:17.500Z,8.55
2022-11-12T07:21:38.438Z,9.07
2022-11-12T07:24:59.333Z,8.30
2022-11-12T07:28:20.211Z,8.73
2022-11-12T07:31:41.697Z,8.82
2022-11-12T07:35:02.705Z,8.45
2022-11-12T07:38:24.037Z,8.65
2022-11-12T07:41:45.089Z,8.07
2022-11-12T07:45:06.611Z,9.00
2022-11-12T07:48:29.737Z,8.18
2022-11-12T07:51:50.846Z,8.35
2022-11-12T07:55:12.046Z,8.38
2022-11-12T07:58:34.636Z,8.47
2022-11-12T08:01:56.365Z,8.40
2022-11-12T08:05:21.182Z,8.25
2022-11-12T08:08:42.673Z,8.38
2022-11-12T08:12:03.978Z,8.00
2022-11-12T08:15:25.198Z,8.90
2022-11-12T08:18:46.767Z,8.57
2022-11-12T08:22:07.977Z,8.50
2022-11-12T08:25:29.070Z,7.78
2022-11-12T08:28:49.944Z,7.80
2022-11-12T08:32:11.204Z,8.00
2022-11-12T08:35:33.575Z,7.60
2022-11-12T08:38:54.952Z,7.78
2022-11-12T08:42:15.661Z,7.82
2022-11-12T08:45:39.241Z,7.78
2022-11-12T08:49:00.688Z,7.83
2022-11-12T08:52:21.753Z,7.97
2022-11-12T08:55:43.258Z,7.55
2022-11-12T08:59:07.314Z,7.93
2022-11-12T09:02:28.695Z,7.53
2022-11-12T09:05:50.431Z,7.00
2022-11-12T09:09:11.618Z,7.43
2022-11-12T09:12:33.305Z,7.22
2022-11-12T09:15:54.440Z,7.50
2022-11-12T09:19:15.429Z,7.30
2022-11-12T09:22:37.233Z,7.00
2022-11-12T09:25:58.573Z,7.63
2022-11-12T09:29:19.907Z,7.28
2022-11-12T09:32:41.071Z,7.25
2022-11-12T09:36:03.802Z,7.60
2022-11-12T09:39:25.293Z,6.70
2022-11-12T09:42:51.504Z,7.25
2022-11-12T09:46:43.509Z,7.72
2022-11-12T09:50:20.321Z,7.57
2022-11-12T09:53:56.206Z,7.22
2022-11-12T09:57:17.137Z,6.77
2022-11-12T10:00:44.834Z,7.35
2022-11-12T10:04:24.392Z,6.85
2022-11-12T10:08:26.905Z,7.18
2022-11-12T10:12:20.009Z,7.55
2022-11-12T10:16:26.488Z,6.80
2022-11-12T10:20:14.227Z,7.05
2022-11-12T10:23:47.281Z,7.72
2022-11-12T10:27:37.110Z,6.80
2022-11-12T10:31:10.370Z,7.43
2022-11-12T10:34:31.638Z,7.40
2022-11-12T10:38:00.395Z,7.05
2022-11-12T10:41:27.911Z,7.22
2022-11-12T10:44:49.735Z,7.07
2022-11-12T10:48:29.392Z,6.85
2022-11-12T10:51:58.707Z,6.67
2022-11-12T10:55:26.391Z,6.90
2022-11-12T10:59:10.945Z,7.03
2022-11-12T11:02:32.091Z,6.70
2022-11-12T11:05:56.036Z,7.20
2022-11-12T11:09:19.876Z,6.70
2022-11-12T11:12:40.728Z,6.35
2022-11-12T11:16:07.792Z,6.72
2022-11-12T11:19:37.539Z,6.88
2022-11-12T11:23:07.144Z,7.07
2022-11-12T11:26:48.794Z,7.10
2022-11-12T11:30:20.104Z,6.55
2022-11-12T11:33:55.072Z,6.65
2022-11-12T11:37:28.390Z,6.53
2022-11-12T11:41:14.603Z,6.72
2022-11-12T11:44:56.105Z,6.27
2022-11-12T11:48:35.241Z,6.38
2022-11-12T11:52:14.855Z,6.20
2022-11-12T11:55:56.358Z,7.15
2022-11-12T11:59:42.480Z,6.63
2022-11-12T12:03:18.154Z,6.20
2022-11-12T12:07:17.599Z,6.53
2022-11-12T12:11:06.826Z,7.25
2022-11-12T12:14:44.977Z,6.20
2022-11-12T12:18:24.494Z,6.60
2022-11-12T12:21:50.271Z,6.43
2022-11-12T12:25:20.852Z,6.28
2022-11-12T12:29:12.295Z,6.32
2022-11-12T12:32:57.728Z,5.88
2022-11-12T12:36:36.520Z,6.15
2022-11-12T12:40:24.087Z,6.13
2022-11-12T12:43:59.466Z,6.07
2022-11-12T12:47:20.997Z,6.10
2022-11-12T12:50:43.072Z,6.28
2022-11-12T12:54:04.186Z,6.32
2022-11-12T12:57:36.510Z,5.70
2022-11-12T13:01:05.029Z,6.07
2022-11-12T13:04:56.435Z,5.55
2022-11-12T13:08:25.536Z,5.50
2022-11-12T13:12:04.477Z,5.72
2022-11-12T13:15:42.770Z,5.40
2022-11-12T13:19:03.995Z,5.78
2022-11-12T13:22:24.922Z,5.60
2022-11-12T13:25:45.840Z,5.40
2022-11-12T13:29:38.474Z,6.30
2022-11-12T13:33:00.929Z,5.40
2022-11-12T13:36:29.065Z,5.70
2022-11-12T13:39:50.574Z,5.35
2022-11-12T13:43:38.510Z,5.57
2022-11-12T13:47:00.646Z,5.60
2022-11-12T13:50:24.661Z,5.40
2022-11-12T13:53:46.443Z,5.25
2022-11-12T13:57:15.933Z,5.22
2022-11-12T14:00:37.582Z,5.70
2022-11-12T14:03:59.111Z,5.90
2022-11-12T14:07:51.303Z,5.63
2022-11-12T14:11:50.184Z,5.15
2022-11-12T14:15:54.469Z,5.38
2022-11-12T14:19:55.819Z,5.32
2022-11-12T14:23:24.461Z,6.05
2022-11-12T14:26:46.027Z,5.67
2022-11-12T14:30:20.916Z,5.32
2022-11-12T14:33:42.091Z,5.18
2022-11-12T14:37:03.516Z,5.45
2022-11-12T14:40:27.041Z,5.22
2022-11-12T14:44:07.512Z,5.10
2022-11-12T14:47:33.070Z,5.43
2022-11-12T14:51:04.379Z,5.75
2022-11-12T14:54:34.215Z,5.28
2022-11-12T14:57:58.836Z,5.45
2022-11-12T15:05:20.970Z,5.45
2022-11-12T15:08:42.254Z,5.53
2022-11-12T15:12:07.360Z,5.60
2022-11-12T15:15:28.873Z,5.82
2022-11-12T15:19:07.811Z,5.10
2022-11-12T15:22:29.397Z,5.10
2022-11-12T15:26:00.964Z,4.97
2022-11-12T15:29:40.031Z,5.05
2022-11-12T15:33:19.426Z,5.18
2022-11-12T15:36:41.474Z,5.20
2022-11-12T15:40:11.653Z,5.10
2022-11-12T15:43:36.087Z,5.22
2022-11-12T15:46:58.992Z,5.25
2022-11-12T15:50:23.220Z,5.38
2022-11-12T15:53:44.736Z,5.53
2022-11-12T15:57:05.947Z,5.50
2022-11-12T16:00:33.034Z,5.25
2022-11-12T16:03:53.887Z,5.40
2022-11-12T16:07:14.675Z,5.65
2022-11-12T16:10:37.231Z,4.87
2022-11-12T16:13:58.303Z,5.20
2022-11-12T16:17:25.739Z,5.07
2022-11-12T16:20:47.384Z,5.18
2022-11-12T16:24:08.562Z,5.70
2022-11-12T16:27:30.502Z,5.60
2022-11-12T16:30:52.165Z,5.30
2022-11-12T16:34:13.428Z,5.30
2022-11-12T16:37:34.369Z,5.90
2022-11-12T16:40:55.466Z,5.45
2022-11-12T16:44:16.228Z,5.83
2022-11-12T16:47:46.304Z,6.05
2022-11-12T16:51:17.253Z,6.28
2022-11-12T16:54:38.190Z,6.88
2022-11-12T16:57:59.350Z,6.68
2022-11-12T17:01:28.233Z,6.60
2022-11-12T17:04:49.315Z,7.22
2022-11-12T17:08:11.220Z,6.63
2022-11-12T17:11:33.389Z,7.00
2022-11-12T17:14:54.430Z,7.20
2022-11-12T17:18:16.280Z,6.70
2022-11-12T17:21:37.456Z,7.10
2022-11-12T17:24:58.630Z,7.70
2022-11-12T17:28:19.963Z,7.72
2022-11-12T17:31:41.508Z,7.93
2022-11-12T17:35:02.667Z,7.50
2022-11-12T17:38:24.402Z,9.55
2022-11-12T17:41:45.672Z,9.20
2022-11-12T17:45:08.073Z,11.60
2022-11-12T17:48:31.489Z,12.73
2022-11-12T17:51:53.069Z,12.73
2022-11-12T17:55:14.329Z,13.45
2022-11-12T17:58:36.176Z,15.38
2022-11-12T18:01:57.666Z,14.52
2022-11-12T18:05:19.524Z,15.13
2022-11-12T18:08:42.113Z,14.73
2022-11-12T18:12:03.935Z,16.10
2022-11-12T18:15:25.631Z,15.15
2022-11-12T18:18:46.838Z,16.75
2022-11-12T18:22:07.915Z,15.60
2022-11-12T18:25:29.220Z,15.73
2022-11-12T18:29:00.456Z,15.90
2022-11-12T18:32:22.264Z,17.20
2022-11-12T18:35:43.314Z,15.65
2022-11-12T18:39:06.567Z,16.45
2022-11-12T18:42:29.480Z,17.03
2022-11-12T18:45:55.083Z,17.75
2022-11-12T18:49:16.393Z,18.40
2022-11-12T18:52:37.747Z,17.95
2022-11-12T18:56:02.073Z,19.98
2022-11-12T18:59:24.464Z,20.53
2022-11-12T19:02:48.567Z,19.15
2022-11-12T19:06:12.585Z,19.20
2022-11-12T19:09:34.371Z,20.05
2022-11-12T19:12:55.752Z,19.35
2022-11-12T19:16:18.681Z,20.03
2022-11-12T19:19:40.107Z,19.80
2022-11-12T19:23:01.729Z,20.48
2022-11-12T19:26:24.330Z,19.30
2022-11-12T19:29:48.102Z,21.05
2022-11-12T19:33:09.342Z,21.57
2022-11-12T19:36:33.717Z,23.40
2022-11-12T19:39:55.274Z,22.83
2022-11-12T19:43:16.698Z,23.23
2022-11-12T19:46:37.977Z,25.13
2022-11-12T19:49:59.720Z,21.80
2022-11-12T19:53:20.922Z,23.20
2022-11-12T19:56:42.163Z,23.55
2022-11-12T20:00:04.923Z,23.35
2022-11-12T20:03:26.495Z,25.20
2022-11-12T20:06:47.712Z,24.17
2022-11-12T20:10:09.209Z,24.15
2022-11-12T20:13:30.824Z,25.90
2022-11-12T20:16:52.457Z,27.00
2022-11-12T20:20:14.161Z,26.52
2022-11-12T20:23:36.196Z,27.20
2022-11-12T20:26:57.623Z,25.50
2022-11-12T20:30:19.162Z,26.90
2022-11-12T20:33:42.613Z,27.05
2022-11-12T20:37:05.214Z,27.02
2022-11-12T20:40:32.256Z,27.33
2022-11-12T20:43:58.566Z,27.83
2022-11-12T20:47:19.866Z,28.63
2022-11-12T20:51:02.369Z,28.40
2022-11-12T20:54:24.971Z,28.73
2022-11-12T20:57:46.392Z,28.53
2022-11-12T21:01:10.436Z,29.50
2022-11-12T21:04:31.591Z,29.60
2022-11-12T21:07:55.225Z,28.92
2022-11-12T21:11:19.204Z,30.38
2022-11-12T21:14:40.359Z,29.20
2022-11-12T21:18:07.914Z,27.67
2022-11-12T21:21:31.658Z,28.92
2022-11-12T21:24:53.174Z,29.55
2022-11-12T21:28:14.618Z,28.85
2022-11-12T21:31:36.036Z,30.20
2022-11-12T21:34:57.134Z,29.02
2022-11-12T21:38:18.164Z,28.77
2022-11-12T21:41:39.230Z,29.60
2022-11-12T21:45:00.037Z,29.63
2022-11-12T21:48:21.468Z,29.47
2022-11-12T21:51:42.478Z,29.63
2022-11-12T21:55:04.064Z,29.92
2022-11-12T21:58:25.295Z,29.38
2022-11-12T22:01:46.799Z,29.55
2022-11-12T22:05:08.685Z,28.70
2022-11-12T22:08:30.388Z,29.42
2022-11-12T22:11:51.497Z,28.48
2022-11-12T22:15:12.556Z,27.23
2022-11-12T22:18:34.440Z,29.92
2022-11-12T22:21:55.498Z,27.20
2022-11-12T22:25:16.762Z,28.95
2022-11-12T22:28:37.852Z,28.33
2022-11-12T22:31:58.693Z,28.00
2022-11-12T22:35:19.712Z,28.73
2022-11-12T22:38:45.930Z,28.23
2022-11-12T22:42:07.479Z,27.13
2022-11-12T22:45:29.073Z,27.92
2022-11-12T22:48:50.159Z,26.55
2022-11-12T22:52:10.880Z,27.65
2022-11-12T22:55:32.630Z,27.73
2022-11-12T22:58:54.556Z,27.77
2022-11-12T23:02:15.846Z,27.27
2022-11-12T23:05:37.139Z,27.55
2022-11-12T23:08:59.579Z,27.08
2022-11-12T23:12:20.452Z,26.47
2022-11-12T23:15:45.563Z,26.23
2022-11-12T23:19:06.952Z,25.65
2022-11-12T23:22:27.977Z,26.45
2022-11-12T23:25:49.015Z,24.98
2022-11-12T23:29:13.523Z,24.70
2022-11-12T23:32:34.549Z,24.95
2022-11-12T23:36:06.844Z,25.70
2022-11-12T23:39:27.961Z,25.40
2022-11-12T23:42:48.811Z,25.08
2022-11-12T23:46:10.643Z,25.43
2022-11-12T23:49:31.994Z,24.95
2022-11-12T23:52:52.797Z,25.98
2022-11-12T23:56:15.772Z,24.40
2022-11-12T23:59:37.468Z,24.75
